EW7696 Weather Reports


Display with metric or nautical units.
time (UTC)temp
F
wind
direction
speed
MPH
gust
MPH
rain 1hr
in
rain 24hr
in
rain mn
in
humidity
%
barometer
mb
20190119081232 21 180 0.0 3.0 0.00 0.01 0.00 61 1022.3
20190119080230 21 214 1.0 3.0 0.00 0.01 0.00 61 1022.3
20190119075229 21 192 1.0 2.0 0.00 0.01 0.00 61 1022.4
20190119074228 21 90 0.0 2.0 0.00 0.01 0.00 61 1022.4
20190119073227 21 180 1.0 3.0 0.00 0.01 0.00 61 1022.4
20190119072224 21 45 1.0 3.0 0.00 0.01 0.00 61 1022.5
20190119071220 20 191 2.0 4.0 0.00 0.01 0.00 62 1022.2
20190119070218 20 185 2.0 5.0 0.00 0.01 0.00 62 1022.2
20190119065217 20 278 1.0 3.0 0.00 0.01 0.00 62 1022.2
20190119064216 20 269 0.0 3.0 0.00 0.01 0.00 62 1022.0
20190119063214 20 188 1.0 3.0 0.00 0.01 0.00 62 1022.1
20190119062213 20 110 2.0 5.0 0.00 0.01 0.00 62 1022.0
20190119061211 19 104 3.0 5.0 0.00 0.01 0.00 62 1022.0
20190119060209 19 156 1.0 4.0 0.00 0.01 0.00 62 1021.8
20190119055207 19 125 1.0 3.0 0.00 0.01 0.00 58 1021.8
20190119054206 18 82 0.0 3.0 0.00 0.01 0.00 58 1021.9
20190119053204 18 209 2.0 4.0 0.00 0.01 0.00 59 1021.9
20190119052201 17 90 3.0 5.0 0.00 0.01 0.00 59 1021.9
20190119051159 17 104 0.0 2.0 0.00 0.01 0.00 59 1021.8
20190119050200 17 77 1.0 2.0 0.00 0.01 0.00 59 1021.8
20190119045157 17 206 2.0 3.0 0.00 0.01 0.00 58 1021.8
20190119044155 17 0 2.0 4.0 0.00 0.01 0.00 58 1021.7
20190119043154 17 175 0.0 3.0 0.00 0.01 0.00 58 1022.0
20190119042152 17 4 2.0 4.0 0.00 0.01 0.00 58 1021.9
20190119041151 17 28 1.0 3.0 0.00 0.01 0.00 58 1021.9
20190119040149 18 180 1.0 3.0 0.00 0.01 0.00 58 1022.0
20190119035148 18 259 2.0 6.0 0.00 0.01 0.00 58 1022.1
20190119034146 18 180 1.0 3.0 0.00 0.01 0.00 58 1021.9
20190119033146 18 180 1.0 3.0 0.00 0.01 0.00 58 1021.9
20190119032143 18 90 1.0 3.0 0.00 0.01 0.00 58 1022.1
20190119031141 18 89 1.0 3.0 0.00 0.01 0.00 58 1022.1
20190119030140 18 108 1.0 3.0 0.00 0.01 0.00 58 1022.0
20190119025139 18 180 2.0 6.0 0.00 0.01 0.00 58 1021.9
20190119024138 17 160 2.0 3.0 0.00 0.01 0.00 58 1022.0
20190119023136 17 194 2.0 3.0 0.00 0.01 0.00 58 1021.9
20190119022135 17 130 0.0 3.0 0.00 0.01 0.00 58 1022.0
20190119021133 17 186 1.0 4.0 0.00 0.01 0.00 58 1021.9
20190119020132 17 104 1.0 3.0 0.00 0.01 0.00 58 1022.1
20190119015100 17 165 2.0 3.0 0.00 0.01 0.00 58 1022.3
20190119014058 17 100 1.0 3.0 0.00 0.01 0.00 58 1022.2
20190119013056 17 101 2.0 3.0 0.00 0.01 0.00 58 1022.3
20190119012055 18 180 1.0 3.0 0.00 0.01 0.00 58 1022.4
20190119011053 18 45 1.0 3.0 0.00 0.01 0.00 58 1022.4
20190119010052 19 270 1.0 3.0 0.00 0.01 0.00 57 1022.3
20190119005050 19 94 0.0 3.0 0.00 0.01 0.00 57 1022.3
20190118230035 19 39 1.0 3.0 0.00 0.01 0.00 60 1022.4
20190118225033 19 194 2.0 3.0 0.00 0.01 0.01 60 1022.3
20190118223029 18 127 1.0 2.0 0.00 0.01 0.01 60 1022.2
20190118222028 19 90 1.0 3.0 0.00 0.01 0.01 60 1022.2
20190118221026 19 103 3.0 5.0 0.00 0.01 0.01 60 1022.2
20190118220025 19 146 2.0 3.0 0.00 0.01 0.01 64 1022.3
20190118215024 20 165 2.0 3.0 0.00 0.01 0.01 64 1022.3
20190118214023 20 142 1.0 2.0 0.00 0.01 0.01 64 1022.1
20190118213020 20 225 1.0 3.0 0.00 0.01 0.01 64 1022.5
20190118212019 20 180 0.0 2.0 0.00 0.01 0.01 64 1022.2
20190118211018 20 33 0.0 2.0 0.00 0.01 0.01 64 1022.2
20190118210016 21 169 1.0 3.0 0.00 0.01 0.01 64 1022.2
20190118205244 21 156 1.0 4.0 0.00 0.01 0.01 64 1022.2
20190118204243 21 53 1.0 3.0 0.00 0.01 0.01 62 1022.1
20190118203241 21 122 0.0 3.0 0.00 0.01 0.01 62 1022.1
20190118202240 21 45 0.0 3.0 0.00 0.01 0.01 62 1022.1
20190118201238 22 70 2.0 3.0 0.00 0.01 0.01 62 1022.2
20190118200237 22 198 1.0 2.0 0.00 0.01 0.01 61 1022.1
20190118195236 23 225 0.0 1.0 0.00 0.01 0.01 61 1022.0
20190118194234 23 224 0.0 2.0 0.00 0.01 0.01 61 1022.0
20190118193233 23 217 1.0 3.0 0.00 0.01 0.01 60 1021.9
20190118192231 23 0 0.0 1.0 0.00 0.01 0.01 60 1021.8
20190118191230 24 169 1.0 3.0 0.00 0.01 0.01 58 1021.7
20190118190228 24 123 0.0 3.0 0.00 0.01 0.01 58 1021.7
20190118185227 25 11 0.0 2.0 0.00 0.01 0.01 58 1021.7
20190118184225 26 0.0 1.0 0.00 0.01 0.01 58 1021.6
20190118183224 26 209 2.0 3.0 0.00 0.01 0.01 57 1021.5
20190118182223 26 270 2.0 4.0 0.00 0.01 0.01 57 1021.5
20190118181221 26 251 1.0 3.0 0.00 0.01 0.01 57 1021.4
20190118180219 27 253 2.0 3.0 0.00 0.01 0.01 56 1021.2
20190118175218 27 270 1.0 3.0 0.00 0.01 0.01 56 1021.1
20190118174216 27 247 2.0 4.0 0.00 0.01 0.01 56 1021.1
20190118173215 27 0.0 0.0 0.00 0.01 0.01 57 1021.1
20190118172213 27 0.0 1.0 0.00 0.01 0.01 56 1021.0
20190118171212 28 157 0.0 3.0 0.00 0.01 0.01 58 1021.1
20190118170211 28 112 0.0 1.0 0.00 0.01 0.01 60 1020.9
20190118165209 28 75 0.0 2.0 0.00 0.01 0.01 61 1020.9
20190118164207 29 90 0.0 2.0 0.00 0.01 0.01 62 1020.8
20190118163206 29 45 1.0 3.0 0.00 0.01 0.01 62 1020.7
20190118162204 29 234 0.0 3.0 0.00 0.01 0.01 63 1020.8
20190118161202 29 36 1.0 3.0 0.00 0.01 0.01 63 1020.7
20190118160201 29 315 1.0 4.0 0.00 0.01 0.01 63 1020.5
20190118155200 28 0 1.0 3.0 0.00 0.01 0.01 63 1020.5
20190118154158 28 149 0.0 2.0 0.00 0.01 0.01 62 1020.2
20190118153156 29 56 2.0 3.0 0.00 0.01 0.01 62 1020.1
20190118152155 29 53 1.0 4.0 0.00 0.01 0.01 62 1019.8
20190118151153 29 191 0.0 2.0 0.00 0.01 0.01 61 1019.7
20190118150153 30 98 2.0 4.0 0.00 0.01 0.01 62 1019.6
20190118145151 30 184 2.0 3.0 0.00 0.01 0.01 61 1019.5
20190118144149 31 265 2.0 6.0 0.00 0.01 0.01 60 1019.4
20190118143148 33 18 2.0 5.0 0.00 0.01 0.01 50 1019.2
20190118142146 34 180 1.0 4.0 0.00 0.01 0.01 49 1019.0
20190118141145 34 45 1.0 3.0 0.00 0.01 0.01 47 1018.9
20190118140143 35 276 2.0 4.0 0.00 0.01 0.01 46 1018.8
20190118135142 36 343 2.0 4.0 0.01 0.01 0.01 46 1018.8
20190118134140 36 45 2.0 6.0 0.01 0.01 0.01 47 1018.7
20190118133139 35 59 1.0 4.0 0.01 0.01 0.01 47 1018.4
20190118132138 36 116 2.0 3.0 0.01 0.01 0.01 45 1018.2
20190118131136 36 345 1.0 3.0 0.01 0.01 0.01 47 1018.3
20190118130135 36 45 1.0 3.0 0.01 0.01 0.01 48 1018.1
20190118125124 35 325 2.0 6.0 0.00 0.00 0.00 50 1017.9
20190118124122 34 24 0.0 3.0 0.00 0.00 0.00 57 1017.8
20190118123117 32 341 1.0 3.0 0.00 0.00 0.00 60 1017.6
20190118122112 32 47 3.0 8.0 0.00 0.00 0.00 64 1017.7
20190118121111 31 0 1.0 3.0 0.00 0.00 0.00 70 1017.5
20190118120106 31 52 1.0 4.0 0.00 0.00 0.00 72 1017.5
20190118115104 30 90 0.0 1.0 0.00 0.00 0.00 72 1017.4
20190118114053 29 150 0.0 1.0 0.00 0.00 0.00 72 1017.3
20190118113048 30 237 1.0 3.0 0.00 0.00 0.00 71 1016.9
20190118112047 30 161 0.0 2.0 0.00 0.00 0.00 71 1017.0
20190118111042 31 161 1.0 3.0 0.00 0.00 0.00 69 1016.8
20190118110040 31 172 2.0 6.0 0.00 0.00 0.00 69 1016.7
20190118105035 32 149 2.0 5.0 0.00 0.00 0.00 67 1016.6
20190118104026 32 223 2.0 4.0 0.00 0.00 0.00 67 1016.4
20190118103024 32 25 1.0 6.0 0.00 0.00 0.00 69 1016.2
20190118102018 31 0.0 1.0 0.00 0.00 0.00 69 1016.2
20190118101016 32 21 1.0 6.0 0.00 0.00 0.00 66 1016.0
20190118100242 33 251 3.0 8.0 0.00 0.00 0.00 61 1015.6
20190118095240 33 30 1.0 3.0 0.00 0.00 0.00 60 1015.3
20190118094235 33 135 0.0 1.0 0.00 0.00 0.00 60 1015.3
20190118093226 33 12 1.0 3.0 0.00 0.00 0.00 58 1015.2
20190118092224 33 147 1.0 2.0 0.00 0.00 0.00 57 1014.9
20190118091218 33 206 3.0 5.0 0.00 0.00 0.00 53 1015.0
20190118090216 33 243 3.0 6.0 0.00 0.00 0.00 53 1014.6
20190118085211 33 180 5.0 9.0 0.00 0.00 0.00 52 1014.3
20190118084210 33 196 3.0 4.0 0.00 0.00 0.00 52 1013.9
20190118083205 33 345 0.0 2.0 0.00 0.00 0.00 54 1014.0
20190118082154 32 194 3.0 7.0 0.00 0.00 0.00 56 1013.5